sensor_id;sensor_type;location;lat;lon;timestamp;P1;durP1;ratioP1;P2;durP2;ratioP2
211;SDS011;16228;48.800;9.002;2022-08-16T00:01:53;4.50;;;4.10;;
211;SDS011;16228;48.800;9.002;2022-08-16T00:04:21;5.33;;;4.93;;
211;SDS011;16228;48.800;9.002;2022-08-16T00:06:48;6.40;;;4.73;;
211;SDS011;16228;48.800;9.002;2022-08-16T00:09:15;5.83;;;5.03;;
211;SDS011;16228;48.800;9.002;2022-08-16T00:11:43;5.30;;;4.90;;
211;SDS011;16228;48.800;9.002;2022-08-16T00:14:13;6.27;;;5.50;;
211;SDS011;16228;48.800;9.002;2022-08-16T00:16:44;6.27;;;5.33;;
211;SDS011;16228;48.800;9.002;2022-08-16T00:19:12;5.83;;;5.27;;
211;SDS011;16228;48.800;9.002;2022-08-16T00:21:40;7.77;;;5.27;;
211;SDS011;16228;48.800;9.002;2022-08-16T00:24:08;5.23;;;4.83;;
211;SDS011;16228;48.800;9.002;2022-08-16T00:26:35;5.77;;;5.27;;
211;SDS011;16228;48.800;9.002;2022-08-16T00:29:02;5.80;;;5.30;;
211;SDS011;16228;48.800;9.002;2022-08-16T00:31:30;6.00;;;5.50;;
211;SDS011;16228;48.800;9.002;2022-08-16T00:33:59;6.23;;;5.73;;
211;SDS011;16228;48.800;9.002;2022-08-16T00:36:26;5.90;;;5.40;;
211;SDS011;16228;48.800;9.002;2022-08-16T00:38:53;6.80;;;5.83;;
211;SDS011;16228;48.800;9.002;2022-08-16T00:41:20;7.70;;;6.23;;
211;SDS011;16228;48.800;9.002;2022-08-16T00:43:48;7.03;;;6.33;;
211;SDS011;16228;48.800;9.002;2022-08-16T00:46:19;5.30;;;4.80;;
211;SDS011;16228;48.800;9.002;2022-08-16T00:48:48;6.83;;;6.27;;
211;SDS011;16228;48.800;9.002;2022-08-16T00:51:18;6.67;;;6.13;;
211;SDS011;16228;48.800;9.002;2022-08-16T00:53:48;6.17;;;5.67;;
211;SDS011;16228;48.800;9.002;2022-08-16T00:56:16;6.40;;;5.80;;
211;SDS011;16228;48.800;9.002;2022-08-16T00:58:46;6.70;;;6.10;;
211;SDS011;16228;48.800;9.002;2022-08-16T01:01:14;6.50;;;5.80;;
211;SDS011;16228;48.800;9.002;2022-08-16T01:03:43;6.37;;;5.77;;
211;SDS011;16228;48.800;9.002;2022-08-16T01:06:12;5.90;;;5.47;;
211;SDS011;16228;48.800;9.002;2022-08-16T01:08:42;7.00;;;6.07;;
211;SDS011;16228;48.800;9.002;2022-08-16T01:11:12;6.20;;;5.70;;
211;SDS011;16228;48.800;9.002;2022-08-16T01:13:40;7.33;;;6.63;;
211;SDS011;16228;48.800;9.002;2022-08-16T01:16:11;7.70;;;6.87;;
211;SDS011;16228;48.800;9.002;2022-08-16T01:18:42;7.27;;;6.60;;
211;SDS011;16228;48.800;9.002;2022-08-16T01:21:14;7.70;;;6.97;;
211;SDS011;16228;48.800;9.002;2022-08-16T01:23:59;7.07;;;6.30;;
211;SDS011;16228;48.800;9.002;2022-08-16T01:26:38;9.27;;;6.60;;
211;SDS011;16228;48.800;9.002;2022-08-16T01:29:10;6.93;;;6.30;;
211;SDS011;16228;48.800;9.002;2022-08-16T01:31:41;6.27;;;5.67;;
211;SDS011;16228;48.800;9.002;2022-08-16T01:34:08;6.53;;;6.00;;
211;SDS011;16228;48.800;9.002;2022-08-16T01:36:37;6.73;;;6.13;;
211;SDS011;16228;48.800;9.002;2022-08-16T01:39:08;7.40;;;5.83;;
211;SDS011;16228;48.800;9.002;2022-08-16T01:41:37;6.40;;;5.90;;
211;SDS011;16228;48.800;9.002;2022-08-16T01:44:04;6.70;;;6.10;;
211;SDS011;16228;48.800;9.002;2022-08-16T01:46:33;7.23;;;6.63;;
211;SDS011;16228;48.800;9.002;2022-08-16T01:49:03;7.23;;;6.53;;
211;SDS011;16228;48.800;9.002;2022-08-16T01:51:31;6.87;;;6.27;;
211;SDS011;16228;48.800;9.002;2022-08-16T01:53:58;6.90;;;6.20;;
211;SDS011;16228;48.800;9.002;2022-08-16T01:56:27;6.90;;;6.27;;
211;SDS011;16228;48.800;9.002;2022-08-16T01:58:55;6.70;;;6.03;;
211;SDS011;16228;48.800;9.002;2022-08-16T02:01:23;7.20;;;6.57;;
211;SDS011;16228;48.800;9.002;2022-08-16T02:03:51;7.30;;;6.43;;
211;SDS011;16228;48.800;9.002;2022-08-16T02:06:18;6.67;;;5.73;;
211;SDS011;16228;48.800;9.002;2022-08-16T02:08:45;6.40;;;5.90;;
211;SDS011;16228;48.800;9.002;2022-08-16T02:11:13;6.47;;;5.70;;
211;SDS011;16228;48.800;9.002;2022-08-16T02:13:42;6.73;;;6.23;;
211;SDS011;16228;48.800;9.002;2022-08-16T02:16:10;7.20;;;6.50;;
211;SDS011;16228;48.800;9.002;2022-08-16T02:18:37;8.87;;;6.50;;
211;SDS011;16228;48.800;9.002;2022-08-16T02:21:05;6.80;;;6.20;;
211;SDS011;16228;48.800;9.002;2022-08-16T02:23:35;7.47;;;6.77;;
211;SDS011;16228;48.800;9.002;2022-08-16T02:26:03;7.17;;;6.57;;
211;SDS011;16228;48.800;9.002;2022-08-16T02:28:31;7.53;;;6.87;;
211;SDS011;16228;48.800;9.002;2022-08-16T02:31:03;6.87;;;6.30;;
211;SDS011;16228;48.800;9.002;2022-08-16T02:33:32;6.63;;;5.97;;
211;SDS011;16228;48.800;9.002;2022-08-16T02:35:59;7.77;;;5.40;;
211;SDS011;16228;48.800;9.002;2022-08-16T02:38:26;6.67;;;6.03;;
211;SDS011;16228;48.800;9.002;2022-08-16T02:40:54;7.67;;;6.10;;
211;SDS011;16228;48.800;9.002;2022-08-16T02:43:22;6.83;;;6.23;;
211;SDS011;16228;48.800;9.002;2022-08-16T02:45:50;7.40;;;6.70;;
211;SDS011;16228;48.800;9.002;2022-08-16T02:48:19;6.13;;;5.63;;
211;SDS011;16228;48.800;9.002;2022-08-16T02:50:46;9.40;;;6.93;;
211;SDS011;16228;48.800;9.002;2022-08-16T02:53:13;7.00;;;6.30;;
211;SDS011;16228;48.800;9.002;2022-08-16T02:55:41;8.73;;;6.87;;
211;SDS011;16228;48.800;9.002;2022-08-16T02:58:08;7.30;;;6.70;;
211;SDS011;16228;48.800;9.002;2022-08-16T03:00:35;7.80;;;7.13;;
211;SDS011;16228;48.800;9.002;2022-08-16T03:03:03;8.10;;;7.30;;
211;SDS011;16228;48.800;9.002;2022-08-16T03:05:32;7.57;;;6.97;;
211;SDS011;16228;48.800;9.002;2022-08-16T03:07:59;8.23;;;7.50;;
211;SDS011;16228;48.800;9.002;2022-08-16T03:10:26;7.47;;;6.40;;
211;SDS011;16228;48.800;9.002;2022-08-16T03:12:53;7.70;;;7.10;;
211;SDS011;16228;48.800;9.002;2022-08-16T03:15:21;7.87;;;6.60;;
211;SDS011;16228;48.800;9.002;2022-08-16T03:17:48;8.83;;;8.03;;
211;SDS011;16228;48.800;9.002;2022-08-16T03:20:15;7.83;;;7.03;;
211;SDS011;16228;48.800;9.002;2022-08-16T03:22:44;7.73;;;6.70;;
211;SDS011;16228;48.800;9.002;2022-08-16T03:25:12;8.50;;;7.73;;
211;SDS011;16228;48.800;9.002;2022-08-16T03:27:40;8.57;;;7.10;;
211;SDS011;16228;48.800;9.002;2022-08-16T03:30:09;7.60;;;6.90;;
211;SDS011;16228;48.800;9.002;2022-08-16T03:32:39;6.50;;;6.00;;
211;SDS011;16228;48.800;9.002;2022-08-16T03:35:07;7.47;;;6.77;;
211;SDS011;16228;48.800;9.002;2022-08-16T03:37:35;6.27;;;5.70;;
211;SDS011;16228;48.800;9.002;2022-08-16T03:40:09;7.07;;;5.40;;
211;SDS011;16228;48.800;9.002;2022-08-16T03:42:37;8.27;;;7.00;;
211;SDS011;16228;48.800;9.002;2022-08-16T03:45:04;8.00;;;7.23;;
211;SDS011;16228;48.800;9.002;2022-08-16T03:47:32;6.50;;;6.00;;
211;SDS011;16228;48.800;9.002;2022-08-16T03:49:59;8.00;;;7.30;;
211;SDS011;16228;48.800;9.002;2022-08-16T03:52:26;8.63;;;7.93;;
211;SDS011;16228;48.800;9.002;2022-08-16T03:54:53;8.27;;;7.57;;
211;SDS011;16228;48.800;9.002;2022-08-16T03:57:22;8.70;;;7.53;;
211;SDS011;16228;48.800;9.002;2022-08-16T03:59:49;7.70;;;7.10;;
211;SDS011;16228;48.800;9.002;2022-08-16T04:02:16;8.33;;;7.63;;
211;SDS011;16228;48.800;9.002;2022-08-16T04:04:43;7.37;;;6.67;;
211;SDS011;16228;48.800;9.002;2022-08-16T04:07:11;8.40;;;7.53;;
211;SDS011;16228;48.800;9.002;2022-08-16T04:09:38;6.37;;;5.70;;
211;SDS011;16228;48.800;9.002;2022-08-16T04:12:06;7.37;;;6.63;;
211;SDS011;16228;48.800;9.002;2022-08-16T04:14:36;8.17;;;7.37;;
211;SDS011;16228;48.800;9.002;2022-08-16T04:17:03;8.17;;;7.37;;
211;SDS011;16228;48.800;9.002;2022-08-16T04:19:30;8.20;;;7.17;;
211;SDS011;16228;48.800;9.002;2022-08-16T04:21:59;7.00;;;6.40;;
211;SDS011;16228;48.800;9.002;2022-08-16T04:24:26;8.60;;;7.80;;
211;SDS011;16228;48.800;9.002;2022-08-16T04:26:53;7.40;;;6.80;;
211;SDS011;16228;48.800;9.002;2022-08-16T04:29:20;8.93;;;8.20;;
211;SDS011;16228;48.800;9.002;2022-08-16T04:31:49;7.90;;;7.20;;
211;SDS011;16228;48.800;9.002;2022-08-16T04:34:17;7.97;;;7.10;;
211;SDS011;16228;48.800;9.002;2022-08-16T04:36:44;7.67;;;6.90;;
211;SDS011;16228;48.800;9.002;2022-08-16T04:39:10;6.30;;;5.70;;
211;SDS011;16228;48.800;9.002;2022-08-16T04:41:37;7.27;;;6.27;;
211;SDS011;16228;48.800;9.002;2022-08-16T04:44:05;6.10;;;5.50;;
211;SDS011;16228;48.800;9.002;2022-08-16T04:46:32;6.70;;;6.10;;
211;SDS011;16228;48.800;9.002;2022-08-16T04:49:00;6.93;;;6.33;;
211;SDS011;16228;48.800;9.002;2022-08-16T04:51:27;7.53;;;6.63;;
211;SDS011;16228;48.800;9.002;2022-08-16T04:53:55;6.97;;;6.37;;
211;SDS011;16228;48.800;9.002;2022-08-16T04:56:22;5.87;;;5.37;;
211;SDS011;16228;48.800;9.002;2022-08-16T04:58:49;7.00;;;6.40;;
211;SDS011;16228;48.800;9.002;2022-08-16T05:01:16;6.27;;;5.77;;
211;SDS011;16228;48.800;9.002;2022-08-16T05:03:44;6.63;;;5.90;;
211;SDS011;16228;48.800;9.002;2022-08-16T05:06:13;6.50;;;6.00;;
211;SDS011;16228;48.800;9.002;2022-08-16T05:08:40;6.20;;;5.70;;
211;SDS011;16228;48.800;9.002;2022-08-16T05:11:07;7.13;;;6.53;;
211;SDS011;16228;48.800;9.002;2022-08-16T05:13:37;6.63;;;5.50;;
211;SDS011;16228;48.800;9.002;2022-08-16T05:16:06;6.47;;;5.87;;
211;SDS011;16228;48.800;9.002;2022-08-16T05:18:35;5.87;;;5.37;;
211;SDS011;16228;48.800;9.002;2022-08-16T05:21:03;6.30;;;5.13;;
211;SDS011;16228;48.800;9.002;2022-08-16T05:23:32;5.73;;;4.93;;
211;SDS011;16228;48.800;9.002;2022-08-16T05:25:59;6.63;;;5.67;;
211;SDS011;16228;48.800;9.002;2022-08-16T05:28:26;6.80;;;6.17;;
211;SDS011;16228;48.800;9.002;2022-08-16T05:30:53;6.93;;;5.40;;
211;SDS011;16228;48.800;9.002;2022-08-16T05:33:20;6.03;;;5.53;;
211;SDS011;16228;48.800;9.002;2022-08-16T05:35:49;5.93;;;5.43;;
211;SDS011;16228;48.800;9.002;2022-08-16T05:38:17;7.23;;;4.93;;
211;SDS011;16228;48.800;9.002;2022-08-16T05:40:45;5.63;;;5.13;;
211;SDS011;16228;48.800;9.002;2022-08-16T05:43:12;6.60;;;6.00;;
211;SDS011;16228;48.800;9.002;2022-08-16T05:45:39;6.30;;;5.37;;
211;SDS011;16228;48.800;9.002;2022-08-16T05:48:06;5.73;;;5.20;;
211;SDS011;16228;48.800;9.002;2022-08-16T05:50:33;6.07;;;4.90;;
211;SDS011;16228;48.800;9.002;2022-08-16T05:53:00;5.03;;;4.63;;
211;SDS011;16228;48.800;9.002;2022-08-16T05:55:27;6.33;;;5.73;;
211;SDS011;16228;48.800;9.002;2022-08-16T05:57:55;5.13;;;4.73;;
211;SDS011;16228;48.800;9.002;2022-08-16T06:00:22;5.70;;;5.27;;
211;SDS011;16228;48.800;9.002;2022-08-16T06:02:49;6.10;;;5.40;;
211;SDS011;16228;48.800;9.002;2022-08-16T06:05:17;5.10;;;4.60;;
211;SDS011;16228;48.800;9.002;2022-08-16T06:07:44;5.60;;;5.03;;
211;SDS011;16228;48.800;9.002;2022-08-16T06:10:11;6.00;;;5.50;;
211;SDS011;16228;48.800;9.002;2022-08-16T06:12:39;6.07;;;3.80;;
211;SDS011;16228;48.800;9.002;2022-08-16T06:15:08;5.00;;;4.50;;
211;SDS011;16228;48.800;9.002;2022-08-16T06:17:38;4.93;;;4.43;;
211;SDS011;16228;48.800;9.002;2022-08-16T06:20:05;5.60;;;4.87;;
211;SDS011;16228;48.800;9.002;2022-08-16T06:22:34;4.33;;;3.97;;
211;SDS011;16228;48.800;9.002;2022-08-16T06:25:02;5.33;;;4.83;;
211;SDS011;16228;48.800;9.002;2022-08-16T06:27:29;5.63;;;4.97;;
211;SDS011;16228;48.800;9.002;2022-08-16T06:29:56;4.83;;;4.43;;
211;SDS011;16228;48.800;9.002;2022-08-16T06:32:24;5.00;;;3.93;;
211;SDS011;16228;48.800;9.002;2022-08-16T06:34:51;4.07;;;3.77;;
211;SDS011;16228;48.800;9.002;2022-08-16T06:37:18;6.37;;;5.07;;
211;SDS011;16228;48.800;9.002;2022-08-16T06:39:45;4.70;;;3.80;;
211;SDS011;16228;48.800;9.002;2022-08-16T06:42:12;5.50;;;4.17;;
211;SDS011;16228;48.800;9.002;2022-08-16T06:44:39;5.30;;;4.17;;
211;SDS011;16228;48.800;9.002;2022-08-16T06:47:06;5.57;;;3.90;;
211;SDS011;16228;48.800;9.002;2022-08-16T06:49:34;6.00;;;4.27;;
211;SDS011;16228;48.800;9.002;2022-08-16T06:52:01;3.60;;;3.23;;
211;SDS011;16228;48.800;9.002;2022-08-16T06:54:28;4.00;;;3.60;;
211;SDS011;16228;48.800;9.002;2022-08-16T06:56:56;5.93;;;4.50;;
211;SDS011;16228;48.800;9.002;2022-08-16T06:59:23;6.10;;;3.63;;
211;SDS011;16228;48.800;9.002;2022-08-16T07:01:50;4.43;;;3.40;;
211;SDS011;16228;48.800;9.002;2022-08-16T07:04:17;3.30;;;3.00;;
211;SDS011;16228;48.800;9.002;2022-08-16T07:06:45;6.40;;;3.50;;
211;SDS011;16228;48.800;9.002;2022-08-16T07:09:12;4.07;;;3.07;;
211;SDS011;16228;48.800;9.002;2022-08-16T07:11:39;5.37;;;3.57;;
211;SDS011;16228;48.800;9.002;2022-08-16T07:14:07;3.60;;;2.70;;
211;SDS011;16228;48.800;9.002;2022-08-16T07:16:34;6.23;;;2.80;;
211;SDS011;16228;48.800;9.002;2022-08-16T07:19:01;4.28;;;2.53;;
211;SDS011;16228;48.800;9.002;2022-08-16T07:21:28;3.58;;;2.60;;
211;SDS011;16228;48.800;9.002;2022-08-16T07:23:56;4.03;;;3.15;;
211;SDS011;16228;48.800;9.002;2022-08-16T07:26:23;4.05;;;2.80;;
211;SDS011;16228;48.800;9.002;2022-08-16T07:28:51;4.40;;;2.85;;
211;SDS011;16228;48.800;9.002;2022-08-16T07:31:18;3.67;;;3.00;;
211;SDS011;16228;48.800;9.002;2022-08-16T07:33:46;4.75;;;3.60;;
211;SDS011;16228;48.800;9.002;2022-08-16T07:36:13;3.15;;;2.58;;
211;SDS011;16228;48.800;9.002;2022-08-16T07:38:41;3.22;;;2.92;;
211;SDS011;16228;48.800;9.002;2022-08-16T07:41:10;3.55;;;3.20;;
211;SDS011;16228;48.800;9.002;2022-08-16T07:43:37;2.78;;;2.50;;
211;SDS011;16228;48.800;9.002;2022-08-16T07:46:04;3.45;;;2.95;;
211;SDS011;16228;48.800;9.002;2022-08-16T07:48:31;2.95;;;2.63;;
211;SDS011;16228;48.800;9.002;2022-08-16T07:50:58;3.22;;;2.95;;
211;SDS011;16228;48.800;9.002;2022-08-16T07:53:26;3.28;;;2.70;;
211;SDS011;16228;48.800;9.002;2022-08-16T07:55:54;3.15;;;2.70;;
211;SDS011;16228;48.800;9.002;2022-08-16T07:58:22;4.68;;;3.08;;
211;SDS011;16228;48.800;9.002;2022-08-16T08:00:49;4.30;;;3.00;;
211;SDS011;16228;48.800;9.002;2022-08-16T08:03:16;3.30;;;3.00;;
211;SDS011;16228;48.800;9.002;2022-08-16T08:05:43;4.25;;;2.65;;
211;SDS011;16228;48.800;9.002;2022-08-16T08:08:10;6.05;;;3.20;;
211;SDS011;16228;48.800;9.002;2022-08-16T08:10:37;4.00;;;3.35;;
211;SDS011;16228;48.800;9.002;2022-08-16T08:13:04;4.40;;;3.10;;
211;SDS011;16228;48.800;9.002;2022-08-16T08:15:33;3.55;;;3.25;;
211;SDS011;16228;48.800;9.002;2022-08-16T08:18:00;3.30;;;2.53;;
211;SDS011;16228;48.800;9.002;2022-08-16T08:20:28;3.30;;;2.90;;
211;SDS011;16228;48.800;9.002;2022-08-16T08:22:56;5.82;;;2.80;;
211;SDS011;16228;48.800;9.002;2022-08-16T08:25:23;3.53;;;3.00;;
211;SDS011;16228;48.800;9.002;2022-08-16T08:27:51;4.53;;;2.88;;
211;SDS011;16228;48.800;9.002;2022-08-16T08:30:18;4.32;;;3.00;;
211;SDS011;16228;48.800;9.002;2022-08-16T08:32:46;2.95;;;2.65;;
211;SDS011;16228;48.800;9.002;2022-08-16T08:35:14;3.97;;;2.92;;
211;SDS011;16228;48.800;9.002;2022-08-16T08:37:41;3.50;;;3.20;;
211;SDS011;16228;48.800;9.002;2022-08-16T08:40:08;3.63;;;2.75;;
211;SDS011;16228;48.800;9.002;2022-08-16T08:42:37;4.00;;;2.65;;
211;SDS011;16228;48.800;9.002;2022-08-16T08:45:08;4.32;;;3.00;;
211;SDS011;16228;48.800;9.002;2022-08-16T08:47:39;3.13;;;2.75;;
211;SDS011;16228;48.800;9.002;2022-08-16T08:50:08;5.97;;;2.95;;
211;SDS011;16228;48.800;9.002;2022-08-16T08:52:35;4.57;;;3.10;;
211;SDS011;16228;48.800;9.002;2022-08-16T08:55:03;3.22;;;2.92;;
211;SDS011;16228;48.800;9.002;2022-08-16T08:57:31;4.32;;;3.30;;
211;SDS011;16228;48.800;9.002;2022-08-16T08:59:58;4.65;;;2.70;;
211;SDS011;16228;48.800;9.002;2022-08-16T09:02:25;3.17;;;2.90;;
211;SDS011;16228;48.800;9.002;2022-08-16T09:04:52;3.38;;;2.70;;
211;SDS011;16228;48.800;9.002;2022-08-16T09:07:20;3.70;;;3.05;;
211;SDS011;16228;48.800;9.002;2022-08-16T09:09:47;5.10;;;3.42;;
211;SDS011;16228;48.800;9.002;2022-08-16T09:12:14;4.15;;;3.08;;
211;SDS011;16228;48.800;9.002;2022-08-16T09:14:42;4.18;;;3.25;;
211;SDS011;16228;48.800;9.002;2022-08-16T09:17:10;4.20;;;3.20;;
211;SDS011;16228;48.800;9.002;2022-08-16T09:19:37;3.00;;;2.80;;
211;SDS011;16228;48.800;9.002;2022-08-16T09:22:05;3.85;;;3.38;;
211;SDS011;16228;48.800;9.002;2022-08-16T09:24:34;3.58;;;3.28;;
211;SDS011;16228;48.800;9.002;2022-08-16T09:27:01;3.00;;;2.70;;
211;SDS011;16228;48.800;9.002;2022-08-16T09:29:28;5.40;;;3.20;;
211;SDS011;16228;48.800;9.002;2022-08-16T09:31:56;3.97;;;3.57;;
211;SDS011;16228;48.800;9.002;2022-08-16T09:34:24;4.37;;;3.40;;
211;SDS011;16228;48.800;9.002;2022-08-16T09:36:51;3.43;;;3.13;;
211;SDS011;16228;48.800;9.002;2022-08-16T09:39:22;4.67;;;3.63;;
211;SDS011;16228;48.800;9.002;2022-08-16T09:41:50;4.32;;;2.92;;
211;SDS011;16228;48.800;9.002;2022-08-16T09:44:20;3.22;;;2.50;;
211;SDS011;16228;48.800;9.002;2022-08-16T09:46:49;3.80;;;2.80;;
211;SDS011;16228;48.800;9.002;2022-08-16T09:49:17;3.53;;;2.90;;
211;SDS011;16228;48.800;9.002;2022-08-16T09:51:44;3.20;;;2.85;;
211;SDS011;16228;48.800;9.002;2022-08-16T09:54:12;3.35;;;3.05;;
211;SDS011;16228;48.800;9.002;2022-08-16T09:56:39;6.43;;;3.17;;
211;SDS011;16228;48.800;9.002;2022-08-16T09:59:08;5.33;;;3.63;;
211;SDS011;16228;48.800;9.002;2022-08-16T10:01:35;6.73;;;3.57;;
211;SDS011;16228;48.800;9.002;2022-08-16T10:04:03;5.10;;;3.97;;
211;SDS011;16228;48.800;9.002;2022-08-16T10:06:31;4.73;;;3.50;;
211;SDS011;16228;48.800;9.002;2022-08-16T10:08:58;4.60;;;3.47;;
211;SDS011;16228;48.800;9.002;2022-08-16T10:11:25;6.90;;;4.20;;
211;SDS011;16228;48.800;9.002;2022-08-16T10:14:11;5.50;;;3.90;;
211;SDS011;16228;48.800;9.002;2022-08-16T10:16:38;3.90;;;3.60;;
211;SDS011;16228;48.800;9.002;2022-08-16T10:19:05;4.27;;;3.87;;
211;SDS011;16228;48.800;9.002;2022-08-16T10:21:32;3.73;;;3.43;;
211;SDS011;16228;48.800;9.002;2022-08-16T10:23:59;3.70;;;3.27;;
211;SDS011;16228;48.800;9.002;2022-08-16T10:26:27;3.83;;;3.43;;
211;SDS011;16228;48.800;9.002;2022-08-16T10:28:55;5.37;;;3.63;;
211;SDS011;16228;48.800;9.002;2022-08-16T10:31:23;4.03;;;2.90;;
211;SDS011;16228;48.800;9.002;2022-08-16T10:33:50;4.22;;;2.97;;
211;SDS011;16228;48.800;9.002;2022-08-16T10:36:18;5.60;;;2.97;;
211;SDS011;16228;48.800;9.002;2022-08-16T10:38:45;5.22;;;3.33;;
211;SDS011;16228;48.800;9.002;2022-08-16T10:41:12;6.38;;;3.30;;
211;SDS011;16228;48.800;9.002;2022-08-16T10:43:40;4.63;;;3.83;;
211;SDS011;16228;48.800;9.002;2022-08-16T10:46:10;4.25;;;2.85;;
211;SDS011;16228;48.800;9.002;2022-08-16T10:48:41;4.72;;;3.35;;
211;SDS011;16228;48.800;9.002;2022-08-16T10:51:10;6.80;;;3.30;;
211;SDS011;16228;48.800;9.002;2022-08-16T10:53:37;3.63;;;3.05;;
211;SDS011;16228;48.800;9.002;2022-08-16T10:56:05;4.57;;;3.10;;
211;SDS011;16228;48.800;9.002;2022-08-16T10:58:34;4.80;;;2.90;;
211;SDS011;16228;48.800;9.002;2022-08-16T11:01:02;3.60;;;3.00;;
211;SDS011;16228;48.800;9.002;2022-08-16T11:03:31;3.92;;;3.13;;
211;SDS011;16228;48.800;9.002;2022-08-16T11:05:59;4.70;;;3.05;;
211;SDS011;16228;48.800;9.002;2022-08-16T11:08:27;3.72;;;2.97;;
211;SDS011;16228;48.800;9.002;2022-08-16T11:10:54;4.60;;;2.78;;
211;SDS011;16228;48.800;9.002;2022-08-16T11:13:22;2.47;;;2.28;;
211;SDS011;16228;48.800;9.002;2022-08-16T11:15:50;3.15;;;2.65;;
211;SDS011;16228;48.800;9.002;2022-08-16T11:18:18;3.13;;;2.42;;
211;SDS011;16228;48.800;9.002;2022-08-16T11:20:46;3.58;;;3.25;;
211;SDS011;16228;48.800;9.002;2022-08-16T11:23:15;2.50;;;2.30;;
211;SDS011;16228;48.800;9.002;2022-08-16T11:25:43;3.67;;;2.53;;
211;SDS011;16228;48.800;9.002;2022-08-16T11:28:10;3.50;;;2.42;;
211;SDS011;16228;48.800;9.002;2022-08-16T11:30:39;3.90;;;2.78;;
211;SDS011;16228;48.800;9.002;2022-08-16T11:33:06;3.75;;;2.50;;
211;SDS011;16228;48.800;9.002;2022-08-16T11:35:34;2.50;;;2.22;;
211;SDS011;16228;48.800;9.002;2022-08-16T11:38:03;2.88;;;2.50;;
211;SDS011;16228;48.800;9.002;2022-08-16T11:40:33;2.88;;;2.67;;
211;SDS011;16228;48.800;9.002;2022-08-16T11:43:02;3.33;;;2.35;;
211;SDS011;16228;48.800;9.002;2022-08-16T11:45:30;3.10;;;2.20;;
211;SDS011;16228;48.800;9.002;2022-08-16T11:47:59;3.50;;;2.70;;
211;SDS011;16228;48.800;9.002;2022-08-16T11:50:26;5.40;;;3.47;;
211;SDS011;16228;48.800;9.002;2022-08-16T11:52:57;5.05;;;3.30;;
211;SDS011;16228;48.800;9.002;2022-08-16T11:55:24;5.28;;;3.40;;
211;SDS011;16228;48.800;9.002;2022-08-16T11:57:53;3.33;;;2.85;;
211;SDS011;16228;48.800;9.002;2022-08-16T12:00:20;3.70;;;2.72;;
211;SDS011;16228;48.800;9.002;2022-08-16T12:02:47;3.67;;;3.33;;
211;SDS011;16228;48.800;9.002;2022-08-16T12:05:14;3.95;;;2.20;;
211;SDS011;16228;48.800;9.002;2022-08-16T12:07:41;4.03;;;2.58;;
211;SDS011;16228;48.800;9.002;2022-08-16T12:10:10;4.30;;;2.72;;
211;SDS011;16228;48.800;9.002;2022-08-16T12:12:39;3.33;;;2.53;;
211;SDS011;16228;48.800;9.002;2022-08-16T12:15:08;2.38;;;2.17;;
211;SDS011;16228;48.800;9.002;2022-08-16T12:17:36;2.40;;;2.20;;
211;SDS011;16228;48.800;9.002;2022-08-16T12:20:04;2.58;;;2.10;;
211;SDS011;16228;48.800;9.002;2022-08-16T12:22:33;2.25;;;2.10;;
211;SDS011;16228;48.800;9.002;2022-08-16T12:25:02;3.28;;;2.53;;
211;SDS011;16228;48.800;9.002;2022-08-16T12:27:29;3.58;;;2.42;;
211;SDS011;16228;48.800;9.002;2022-08-16T12:29:57;2.92;;;2.60;;
211;SDS011;16228;48.800;9.002;2022-08-16T12:32:26;2.60;;;2.40;;
211;SDS011;16228;48.800;9.002;2022-08-16T12:34:53;3.75;;;2.50;;
211;SDS011;16228;48.800;9.002;2022-08-16T12:37:21;3.17;;;2.55;;
211;SDS011;16228;48.800;9.002;2022-08-16T12:39:48;2.40;;;2.30;;
211;SDS011;16228;48.800;9.002;2022-08-16T12:42:15;3.80;;;2.08;;
211;SDS011;16228;48.800;9.002;2022-08-16T12:44:43;2.42;;;2.20;;
211;SDS011;16228;48.800;9.002;2022-08-16T12:47:10;2.38;;;2.17;;
211;SDS011;16228;48.800;9.002;2022-08-16T12:49:56;2.50;;;2.30;;
211;SDS011;16228;48.800;9.002;2022-08-16T12:52:23;2.70;;;2.50;;
211;SDS011;16228;48.800;9.002;2022-08-16T12:54:52;2.70;;;2.45;;
211;SDS011;16228;48.800;9.002;2022-08-16T12:57:20;3.08;;;2.60;;
211;SDS011;16228;48.800;9.002;2022-08-16T12:59:49;4.38;;;2.75;;
211;SDS011;16228;48.800;9.002;2022-08-16T13:02:16;5.30;;;2.53;;
211;SDS011;16228;48.800;9.002;2022-08-16T13:04:45;2.30;;;2.10;;
211;SDS011;16228;48.800;9.002;2022-08-16T13:07:14;2.47;;;2.28;;
211;SDS011;16228;48.800;9.002;2022-08-16T13:09:42;2.17;;;1.98;;
211;SDS011;16228;48.800;9.002;2022-08-16T13:12:17;2.63;;;2.10;;
211;SDS011;16228;48.800;9.002;2022-08-16T13:14:48;3.13;;;2.38;;
211;SDS011;16228;48.800;9.002;2022-08-16T13:17:17;4.97;;;2.38;;
211;SDS011;16228;48.800;9.002;2022-08-16T13:19:46;3.15;;;2.20;;
211;SDS011;16228;48.800;9.002;2022-08-16T13:22:15;2.75;;;2.35;;
211;SDS011;16228;48.800;9.002;2022-08-16T13:24:43;2.55;;;2.30;;
211;SDS011;16228;48.800;9.002;2022-08-16T13:27:10;2.55;;;2.00;;
211;SDS011;16228;48.800;9.002;2022-08-16T13:29:37;2.78;;;2.17;;
211;SDS011;16228;48.800;9.002;2022-08-16T13:32:05;2.80;;;2.20;;
211;SDS011;16228;48.800;9.002;2022-08-16T13:34:32;2.60;;;2.40;;
211;SDS011;16228;48.800;9.002;2022-08-16T13:36:59;2.40;;;2.20;;
211;SDS011;16228;48.800;9.002;2022-08-16T13:39:27;3.83;;;2.60;;
211;SDS011;16228;48.800;9.002;2022-08-16T13:41:55;2.40;;;2.20;;
211;SDS011;16228;48.800;9.002;2022-08-16T13:44:25;2.42;;;2.22;;
211;SDS011;16228;48.800;9.002;2022-08-16T13:46:52;2.42;;;2.15;;
211;SDS011;16228;48.800;9.002;2022-08-16T13:49:21;2.47;;;2.27;;
211;SDS011;16228;48.800;9.002;2022-08-16T13:51:47;3.33;;;2.33;;
211;SDS011;16228;48.800;9.002;2022-08-16T13:54:14;5.20;;;2.73;;
211;SDS011;16228;48.800;9.002;2022-08-16T13:56:43;4.67;;;2.70;;
211;SDS011;16228;48.800;9.002;2022-08-16T13:59:10;3.37;;;2.50;;
211;SDS011;16228;48.800;9.002;2022-08-16T14:01:38;3.30;;;2.50;;
211;SDS011;16228;48.800;9.002;2022-08-16T14:04:05;4.07;;;2.80;;
211;SDS011;16228;48.800;9.002;2022-08-16T14:06:32;4.23;;;2.37;;
211;SDS011;16228;48.800;9.002;2022-08-16T14:08:59;4.77;;;3.00;;
211;SDS011;16228;48.800;9.002;2022-08-16T14:11:26;2.93;;;2.63;;
211;SDS011;16228;48.800;9.002;2022-08-16T14:13:55;4.43;;;2.67;;
211;SDS011;16228;48.800;9.002;2022-08-16T14:16:23;2.93;;;2.73;;
211;SDS011;16228;48.800;9.002;2022-08-16T14:18:50;5.73;;;2.67;;
211;SDS011;16228;48.800;9.002;2022-08-16T14:21:17;3.47;;;2.37;;
211;SDS011;16228;48.800;9.002;2022-08-16T14:23:44;4.60;;;2.70;;
211;SDS011;16228;48.800;9.002;2022-08-16T14:26:11;6.40;;;2.80;;
211;SDS011;16228;48.800;9.002;2022-08-16T14:28:38;3.13;;;2.90;;
211;SDS011;16228;48.800;9.002;2022-08-16T14:31:07;4.93;;;2.80;;
211;SDS011;16228;48.800;9.002;2022-08-16T14:33:34;3.10;;;2.50;;
211;SDS011;16228;48.800;9.002;2022-08-16T14:36:01;2.93;;;2.50;;
211;SDS011;16228;48.800;9.002;2022-08-16T14:38:29;4.77;;;3.10;;
211;SDS011;16228;48.800;9.002;2022-08-16T14:40:56;3.73;;;3.00;;
211;SDS011;16228;48.800;9.002;2022-08-16T14:43:23;4.33;;;3.17;;
211;SDS011;16228;48.800;9.002;2022-08-16T14:45:50;3.93;;;2.40;;
211;SDS011;16228;48.800;9.002;2022-08-16T14:48:20;4.47;;;2.53;;
211;SDS011;16228;48.800;9.002;2022-08-16T14:50:48;3.77;;;2.67;;
211;SDS011;16228;48.800;9.002;2022-08-16T14:53:15;4.63;;;2.63;;
211;SDS011;16228;48.800;9.002;2022-08-16T14:55:42;3.00;;;2.40;;
211;SDS011;16228;48.800;9.002;2022-08-16T14:58:09;2.93;;;2.73;;
211;SDS011;16228;48.800;9.002;2022-08-16T15:00:36;2.73;;;2.50;;
211;SDS011;16228;48.800;9.002;2022-08-16T15:03:07;3.13;;;2.27;;
211;SDS011;16228;48.800;9.002;2022-08-16T15:05:37;3.77;;;3.23;;
211;SDS011;16228;48.800;9.002;2022-08-16T15:08:05;3.00;;;2.30;;
211;SDS011;16228;48.800;9.002;2022-08-16T15:10:34;3.33;;;2.50;;
211;SDS011;16228;48.800;9.002;2022-08-16T15:13:03;4.20;;;2.40;;
211;SDS011;16228;48.800;9.002;2022-08-16T15:15:31;3.40;;;3.03;;
211;SDS011;16228;48.800;9.002;2022-08-16T15:17:58;3.00;;;2.70;;
211;SDS011;16228;48.800;9.002;2022-08-16T15:20:27;2.73;;;2.50;;